Time;durP1;ratioP1;P1;durP2;ratioP2;P2;SDS_P1;SDS_P2;PMS_P1;PMS_P2;Temp;Humidity;BMP_temperature;BMP_pressure;BME280_temperature;BME280_humidity;BME280_pressure;Samples;Min_cycle;Max_cycle;Signal;HPM_P1;HPM_P2
2022/01/20 00:00:42;;;;;;;10.47;1.50;;;;;;;;;;5073705;28;20082;-89
2022/01/20 00:03:13;;;;;;;15.13;2.30;;;;;;;;;;5073979;28;20107;-89
2022/01/20 00:27:28;;;;;;;13.43;1.97;;;;;;;;;;5074903;28;20031;-90
2022/01/20 00:33:14;;;;;;;15.83;2.17;;;;;;;;;;5074589;28;20384;-90
2022/01/20 00:35:30;;;;;;;20.47;2.47;;;;;;;;;;5071373;28;20028;-89
2022/01/20 00:37:55;;;;;;;19.67;2.63;;;;;;;;;;5074794;28;20024;-90
2022/01/20 00:40:21;;;;;;;25.40;2.87;;;;;;;;;;5073547;28;20024;-89
2022/01/20 00:42:47;;;;;;;29.07;2.43;;;;;;;;;;5073315;28;20032;-89
2022/01/20 00:45:12;;;;;;;19.53;2.60;;;;;;;;;;5073102;28;20391;-89
2022/01/20 00:47:38;;;;;;;24.27;3.13;;;;;;;;;;5073838;28;20025;-89
2022/01/20 00:50:04;;;;;;;16.03;2.40;;;;;;;;;;5073099;28;20020;-89
2022/01/20 00:52:29;;;;;;;21.40;3.27;;;;;;;;;;5073051;28;20021;-89
2022/01/20 00:54:54;;;;;;;19.70;3.03;;;;;;;;;;5065689;28;20074;-89
2022/01/20 00:57:20;;;;;;;25.83;3.53;;;;;;;;;;5052992;28;20388;-89
2022/01/20 00:59:45;;;;;;;22.00;2.60;;;;;;;;;;5053274;28;20028;-89
2022/01/20 01:02:11;;;;;;;23.00;2.27;;;;;;;;;;5053235;28;20393;-89
2022/01/20 01:04:38;;;;;;;24.80;2.33;;;;;;;;;;5052866;28;20025;-89
2022/01/20 01:09:31;;;;;;;19.70;2.83;;;;;;;;;;5058170;28;20023;-89
2022/01/20 01:12:01;;;;;;;20.00;2.57;;;;;;;;;;5072822;28;20016;-89
2022/01/20 01:14:29;;;;;;;21.50;2.83;;;;;;;;;;5073872;28;20380;-90
2022/01/20 01:24:30;;;;;;;30.03;2.77;;;;;;;;;;5073608;28;20452;-89
2022/01/20 01:26:55;;;;;;;26.83;2.73;;;;;;;;;;5072558;28;20028;-89
2022/01/20 01:29:41;;;;;;;22.77;2.90;;;;;;;;;;5072645;28;20035;-89
2022/01/20 01:32:08;;;;;;;22.27;2.73;;;;;;;;;;5073741;28;20025;-89
2022/01/20 01:34:36;;;;;;;21.07;3.10;;;;;;;;;;5072436;28;20077;-90
2022/01/20 01:39:26;;;;;;;22.90;2.70;;;;;;;;;;5073908;28;20483;-89
2022/01/20 01:41:52;;;;;;;24.07;2.53;;;;;;;;;;5072344;28;20021;-90
2022/01/20 01:44:24;;;;;;;19.83;2.30;;;;;;;;;;5072482;28;20025;-89
2022/01/20 01:46:49;;;;;;;22.88;3.13;;;;;;;;;;5073397;28;20024;-89
2022/01/20 01:49:16;;;;;;;16.67;2.33;;;;;;;;;;5072343;28;20035;-90
2022/01/20 01:51:41;;;;;;;21.40;2.87;;;;;;;;;;5072797;28;20059;-89
2022/01/20 01:54:06;;;;;;;26.13;2.93;;;;;;;;;;5073350;28;20397;-89
2022/01/20 01:56:32;;;;;;;26.90;3.07;;;;;;;;;;5072257;28;20029;-89
2022/01/20 01:58:57;;;;;;;26.37;3.60;;;;;;;;;;5072483;28;20048;-89
2022/01/20 02:01:22;;;;;;;18.93;2.40;;;;;;;;;;5075582;28;20046;-89
2022/01/20 02:03:57;;;;;;;22.67;2.70;;;;;;;;;;5076303;28;20024;-89
2022/01/20 02:18:12;;;;;;;21.40;2.67;;;;;;;;;;5071237;28;20094;-89
2022/01/20 02:20:13;;;;;;;23.10;2.83;;;;;;;;;;5068873;28;20132;-89
2022/01/20 02:22:38;;;;;;;20.42;2.75;;;;;;;;;;5075968;28;20403;-89
2022/01/20 02:25:04;;;;;;;24.67;3.10;;;;;;;;;;5075677;28;20028;-89
2022/01/20 02:27:29;;;;;;;18.33;2.13;;;;;;;;;;5075959;28;20027;-89
2022/01/20 02:29:54;;;;;;;31.60;2.80;;;;;;;;;;5076871;28;20023;-89
2022/01/20 02:32:19;;;;;;;29.30;2.60;;;;;;;;;;5075728;28;20016;-89
2022/01/20 02:34:45;;;;;;;16.87;2.27;;;;;;;;;;5075668;28;20460;-89
2022/01/20 02:37:13;;;;;;;15.73;2.30;;;;;;;;;;5075609;28;20047;-89
2022/01/20 02:44:56;;;;;;;15.27;2.87;;;;;;;;;;5076551;28;20028;-89
2022/01/20 02:47:23;;;;;;;24.03;3.00;;;;;;;;;;5076195;28;20048;-89
2022/01/20 02:49:48;;;;;;;20.87;2.83;;;;;;;;;;5075315;28;20033;-89
2022/01/20 02:52:14;;;;;;;20.43;2.27;;;;;;;;;;5074704;28;20020;-89
2022/01/20 02:54:39;;;;;;;24.17;3.07;;;;;;;;;;5075530;28;20013;-89
2022/01/20 02:57:05;;;;;;;12.57;1.97;;;;;;;;;;5075489;28;20063;-89
2022/01/20 02:59:31;;;;;;;16.97;2.00;;;;;;;;;;5075295;28;20021;-89
2022/01/20 03:01:56;;;;;;;22.03;2.30;;;;;;;;;;5075186;28;20024;-89
2022/01/20 03:04:25;;;;;;;17.93;2.33;;;;;;;;;;5075172;28;20032;-90
2022/01/20 03:06:50;;;;;;;18.93;2.10;;;;;;;;;;5074695;28;20021;-89
2022/01/20 03:09:15;;;;;;;18.73;1.83;;;;;;;;;;5075096;28;20035;-90
2022/01/20 03:11:40;;;;;;;30.93;2.53;;;;;;;;;;5074482;28;20023;-89
2022/01/20 03:14:05;;;;;;;18.63;2.07;;;;;;;;;;5074764;28;20116;-90
2022/01/20 03:16:31;;;;;;;19.93;1.93;;;;;;;;;;5076321;28;20082;-90
2022/01/20 03:18:56;;;;;;;15.50;2.10;;;;;;;;;;5074860;28;20052;-89
2022/01/20 03:21:21;;;;;;;21.70;2.30;;;;;;;;;;5076056;28;20023;-90
2022/01/20 03:23:47;;;;;;;17.63;2.03;;;;;;;;;;5074707;28;20025;-89
2022/01/20 03:26:12;;;;;;;16.63;1.67;;;;;;;;;;5075693;28;20043;-89
2022/01/20 03:28:37;;;;;;;13.07;1.37;;;;;;;;;;5075609;28;20024;-89
2022/01/20 03:31:02;;;;;;;9.37;1.60;;;;;;;;;;5074680;28;20377;-89
2022/01/20 03:33:28;;;;;;;14.23;1.73;;;;;;;;;;5074633;28;20383;-89
2022/01/20 03:35:53;;;;;;;11.20;1.47;;;;;;;;;;5074601;28;20020;-89
2022/01/20 03:38:19;;;;;;;10.27;1.67;;;;;;;;;;5074602;28;20020;-89
2022/01/20 03:40:44;;;;;;;8.73;1.40;;;;;;;;;;5075672;28;20016;-89
2022/01/20 03:43:09;;;;;;;11.13;1.23;;;;;;;;;;5075787;28;20103;-90
2022/01/20 03:45:34;;;;;;;8.77;0.90;;;;;;;;;;5074781;28;20028;-89
2022/01/20 03:48:08;;;;;;;12.33;1.30;;;;;;;;;;5073872;28;20070;-89
2022/01/20 03:53:18;;;;;;;17.80;1.40;;;;;;;;;;5075434;28;20019;-90
2022/01/20 03:55:43;;;;;;;8.93;1.10;;;;;;;;;;5075385;28;20103;-89
2022/01/20 03:58:08;;;;;;;10.27;1.63;;;;;;;;;;5074382;28;20067;-89
2022/01/20 04:00:33;;;;;;;12.50;1.57;;;;;;;;;;5073918;28;20458;-89
2022/01/20 04:02:59;;;;;;;8.77;1.03;;;;;;;;;;5073653;28;20383;-89
2022/01/20 04:05:24;;;;;;;11.77;1.33;;;;;;;;;;5073902;28;20029;-89
2022/01/20 04:07:49;;;;;;;9.17;0.93;;;;;;;;;;5075055;28;20016;-89
2022/01/20 04:10:14;;;;;;;6.73;0.80;;;;;;;;;;5074104;28;20024;-89
2022/01/20 04:12:40;;;;;;;7.97;0.83;;;;;;;;;;5073779;28;20028;-89
2022/01/20 04:15:08;;;;;;;7.83;0.83;;;;;;;;;;5074752;28;20423;-89
2022/01/20 04:17:35;;;;;;;11.13;0.90;;;;;;;;;;5073301;28;20020;-89
2022/01/20 04:20:00;;;;;;;7.87;0.90;;;;;;;;;;5074726;28;20472;-89
2022/01/20 04:22:27;;;;;;;5.20;0.80;;;;;;;;;;5072887;28;20078;-89
2022/01/20 04:24:52;;;;;;;12.13;1.17;;;;;;;;;;5073477;28;20016;-90
2022/01/20 04:27:18;;;;;;;4.00;0.60;;;;;;;;;;5073348;28;20024;-89
2022/01/20 04:29:43;;;;;;;14.37;1.70;;;;;;;;;;5073441;28;20424;-89
2022/01/20 04:32:09;;;;;;;9.17;1.20;;;;;;;;;;5073249;28;20036;-90
2022/01/20 04:34:34;;;;;;;12.50;1.63;;;;;;;;;;5073272;28;20062;-89
2022/01/20 04:37:02;;;;;;;10.03;1.23;;;;;;;;;;5073562;28;20041;-89
2022/01/20 04:39:31;;;;;;;9.83;1.40;;;;;;;;;;5073275;28;20471;-89
2022/01/20 04:41:56;;;;;;;12.50;1.30;;;;;;;;;;5073322;28;20054;-89
2022/01/20 04:58:28;;;;;;;10.57;1.17;;;;;;;;;;5074414;28;20104;-89
2022/01/20 05:00:53;;;;;;;11.80;1.43;;;;;;;;;;5072278;28;20020;-89
2022/01/20 05:03:18;;;;;;;11.00;1.63;;;;;;;;;;5072823;28;20052;-89
2022/01/20 05:05:44;;;;;;;21.87;2.57;;;;;;;;;;5073030;28;20533;-89
2022/01/20 05:08:09;;;;;;;10.27;2.03;;;;;;;;;;5072566;28;20047;-89
2022/01/20 05:10:35;;;;;;;10.93;2.03;;;;;;;;;;5072835;28;20506;-89
2022/01/20 05:13:08;;;;;;;11.27;2.23;;;;;;;;;;5072842;28;20020;-89
2022/01/20 05:15:33;;;;;;;10.93;2.60;;;;;;;;;;5071535;28;20040;-89
2022/01/20 05:17:59;;;;;;;15.07;2.00;;;;;;;;;;5072738;28;20388;-88
2022/01/20 05:20:24;;;;;;;12.40;2.10;;;;;;;;;;5072557;28;20103;-89
2022/01/20 05:22:52;;;;;;;11.10;2.33;;;;;;;;;;5072696;28;20030;-89
2022/01/20 05:25:18;;;;;;;17.00;2.47;;;;;;;;;;5072611;28;20021;-89
2022/01/20 05:27:43;;;;;;;10.27;2.37;;;;;;;;;;5072716;28;20016;-89
2022/01/20 05:30:08;;;;;;;7.53;1.97;;;;;;;;;;5072510;28;20016;-89
2022/01/20 05:32:34;;;;;;;11.03;2.13;;;;;;;;;;5072632;28;20064;-89
2022/01/20 05:34:59;;;;;;;10.67;2.40;;;;;;;;;;5072468;28;20123;-89
2022/01/20 05:37:24;;;;;;;10.97;2.37;;;;;;;;;;5073473;28;20046;-89
2022/01/20 05:39:49;;;;;;;11.53;2.20;;;;;;;;;;5072613;28;20021;-89
2022/01/20 05:42:14;;;;;;;10.90;1.83;;;;;;;;;;5072430;28;20028;-89
2022/01/20 05:44:39;;;;;;;9.93;2.20;;;;;;;;;;5072458;28;20021;-89
2022/01/20 05:47:10;;;;;;;9.67;2.23;;;;;;;;;;5072006;28;20357;-89
2022/01/20 05:49:35;;;;;;;17.20;2.33;;;;;;;;;;5072216;28;20729;-89
2022/01/20 05:52:01;;;;;;;23.33;1.60;;;;;;;;;;5072470;28;20078;-89
2022/01/20 05:54:26;;;;;;;14.33;1.70;;;;;;;;;;5072223;28;20024;-89
2022/01/20 05:56:51;;;;;;;14.07;2.13;;;;;;;;;;5072213;28;20028;-89
2022/01/20 05:59:17;;;;;;;15.70;2.60;;;;;;;;;;5072630;28;20457;-89
2022/01/20 06:01:45;;;;;;;13.97;1.67;;;;;;;;;;5071635;28;20531;-89
2022/01/20 06:04:10;;;;;;;13.80;1.63;;;;;;;;;;5072199;28;20028;-89
2022/01/20 06:06:36;;;;;;;9.90;1.67;;;;;;;;;;5072137;28;20039;-89
2022/01/20 06:09:05;;;;;;;12.80;1.37;;;;;;;;;;5072053;28;20020;-89
2022/01/20 06:11:30;;;;;;;7.57;1.13;;;;;;;;;;5072262;28;20016;-89
2022/01/20 06:13:56;;;;;;;10.03;1.83;;;;;;;;;;5072018;28;20112;-89
2022/01/20 06:16:21;;;;;;;16.80;2.30;;;;;;;;;;5071812;28;20016;-89
2022/01/20 06:18:46;;;;;;;14.07;1.67;;;;;;;;;;5071862;28;20033;-89
2022/01/20 06:21:11;;;;;;;12.67;1.40;;;;;;;;;;5071946;28;20127;-89
2022/01/20 06:23:37;;;;;;;14.17;1.57;;;;;;;;;;5072037;28;20021;-90
2022/01/20 06:26:05;;;;;;;19.10;2.03;;;;;;;;;;5071660;28;20031;-89
2022/01/20 06:28:31;;;;;;;17.77;2.63;;;;;;;;;;5073179;28;20021;-89
2022/01/20 06:30:56;;;;;;;16.30;2.03;;;;;;;;;;5071540;28;20016;-89
2022/01/20 06:33:21;;;;;;;22.73;2.20;;;;;;;;;;5071608;28;20031;-89
2022/01/20 06:35:47;;;;;;;22.07;2.67;;;;;;;;;;5071834;28;20438;-89
2022/01/20 06:38:13;;;;;;;19.73;2.20;;;;;;;;;;5071874;28;20098;-89
2022/01/20 06:40:38;;;;;;;21.10;2.20;;;;;;;;;;5071925;28;20048;-89
2022/01/20 06:43:04;;;;;;;8.73;1.77;;;;;;;;;;5071770;28;20446;-89
2022/01/20 06:45:29;;;;;;;18.30;2.50;;;;;;;;;;5071815;28;20027;-89
2022/01/20 06:47:54;;;;;;;19.97;1.77;;;;;;;;;;5076700;28;20095;-89
2022/01/20 06:50:19;;;;;;;17.83;2.03;;;;;;;;;;5075241;28;20124;-89
2022/01/20 06:52:45;;;;;;;12.03;1.83;;;;;;;;;;5076308;28;20103;-89
2022/01/20 06:55:12;;;;;;;17.57;2.27;;;;;;;;;;5072056;28;20472;-89
2022/01/20 06:57:38;;;;;;;13.53;1.77;;;;;;;;;;5055226;28;20457;-89
2022/01/20 07:00:04;;;;;;;9.97;1.60;;;;;;;;;;5054945;28;20115;-89
2022/01/20 07:02:29;;;;;;;13.03;1.40;;;;;;;;;;5055096;28;20024;-89
2022/01/20 07:04:54;;;;;;;9.10;1.97;;;;;;;;;;5069335;28;20464;-88
2022/01/20 07:07:20;;;;;;;13.27;2.00;;;;;;;;;;5074888;28;20024;-89
2022/01/20 07:09:45;;;;;;;13.97;1.60;;;;;;;;;;5075155;28;20028;-89
2022/01/20 07:12:11;;;;;;;12.87;2.00;;;;;;;;;;5074828;28;20024;-88
2022/01/20 07:14:36;;;;;;;11.93;2.20;;;;;;;;;;5074895;28;20062;-89
2022/01/20 07:17:02;;;;;;;9.20;1.53;;;;;;;;;;5074627;28;20372;-89
2022/01/20 07:19:27;;;;;;;10.70;1.83;;;;;;;;;;5074513;28;20089;-89
2022/01/20 07:21:52;;;;;;;11.23;1.80;;;;;;;;;;5075044;28;20036;-89
2022/01/20 07:24:18;;;;;;;9.30;1.90;;;;;;;;;;5074762;28;20032;-89
2022/01/20 07:26:43;;;;;;;9.47;1.90;;;;;;;;;;5074109;28;20035;-89
2022/01/20 07:29:08;;;;;;;11.63;1.60;;;;;;;;;;5075837;28;20017;-89
2022/01/20 07:31:33;;;;;;;10.60;2.00;;;;;;;;;;5072830;28;20028;-89
2022/01/20 07:33:59;;;;;;;10.10;1.77;;;;;;;;;;5074758;28;20070;-89
2022/01/20 07:36:24;;;;;;;8.83;1.90;;;;;;;;;;5075656;28;20179;-89
2022/01/20 07:38:49;;;;;;;10.40;1.90;;;;;;;;;;5072632;28;20032;-90
2022/01/20 07:41:15;;;;;;;11.03;1.77;;;;;;;;;;5074247;28;20024;-90
2022/01/20 07:43:40;;;;;;;9.33;1.80;;;;;;;;;;5073887;28;20039;-90
2022/01/20 07:46:06;;;;;;;13.07;2.53;;;;;;;;;;5074185;28;20024;-90
2022/01/20 07:48:31;;;;;;;16.10;3.00;;;;;;;;;;5073934;28;20041;-89
2022/01/20 07:50:57;;;;;;;12.60;2.10;;;;;;;;;;5074100;28;20365;-89
2022/01/20 07:53:22;;;;;;;15.30;2.00;;;;;;;;;;5073954;28;20535;-89
2022/01/20 07:55:47;;;;;;;8.17;2.17;;;;;;;;;;5074006;28;20035;-89
2022/01/20 07:58:12;;;;;;;14.30;1.90;;;;;;;;;;5074040;28;20025;-89
2022/01/20 08:00:37;;;;;;;12.83;2.33;;;;;;;;;;5073790;28;20070;-89
2022/01/20 08:03:03;;;;;;;8.17;1.33;;;;;;;;;;5059660;28;20021;-90
2022/01/20 08:05:28;;;;;;;12.13;2.67;;;;;;;;;;5053676;28;20032;-90
2022/01/20 08:07:53;;;;;;;23.93;4.67;;;;;;;;;;5056672;28;20031;-89
2022/01/20 08:10:18;;;;;;;14.60;3.27;;;;;;;;;;5060383;28;20017;-89
2022/01/20 08:12:44;;;;;;;12.77;2.60;;;;;;;;;;5053587;28;20021;-90
2022/01/20 08:15:12;;;;;;;12.00;2.77;;;;;;;;;;5059877;28;20032;-89
2022/01/20 08:17:37;;;;;;;13.83;3.00;;;;;;;;;;5060379;28;20024;-90
2022/01/20 08:20:03;;;;;;;12.63;2.57;;;;;;;;;;5053204;28;20036;-90
2022/01/20 08:22:31;;;;;;;13.53;2.30;;;;;;;;;;5054349;28;20028;-90
2022/01/20 08:24:56;;;;;;;15.03;2.63;;;;;;;;;;5053104;28;20075;-89
2022/01/20 08:27:22;;;;;;;14.00;2.80;;;;;;;;;;5064657;28;20032;-89
2022/01/20 08:29:47;;;;;;;9.83;2.27;;;;;;;;;;5072697;28;20016;-89
2022/01/20 08:32:12;;;;;;;11.87;2.33;;;;;;;;;;5069686;28;20718;-89
2022/01/20 08:34:37;;;;;;;17.50;2.53;;;;;;;;;;5071100;28;20403;-89
2022/01/20 08:37:03;;;;;;;14.47;2.23;;;;;;;;;;5053084;28;20067;-90
2022/01/20 08:42:01;;;;;;;13.40;3.17;;;;;;;;;;5065602;28;20028;-90
2022/01/20 08:44:26;;;;;;;13.50;2.10;;;;;;;;;;5066594;28;20401;-89
2022/01/20 08:46:52;;;;;;;18.37;2.43;;;;;;;;;;5069107;28;20021;-90
2022/01/20 08:49:18;;;;;;;18.83;2.70;;;;;;;;;;5054703;28;20017;-90
2022/01/20 08:51:44;;;;;;;14.03;2.57;;;;;;;;;;5052844;28;20032;-89
2022/01/20 08:54:09;;;;;;;14.17;2.07;;;;;;;;;;5056039;28;20044;-90
2022/01/20 08:56:34;;;;;;;16.00;2.37;;;;;;;;;;5061448;28;20021;-90
2022/01/20 08:59:05;;;;;;;7.27;1.53;;;;;;;;;;5060477;28;20036;-90
2022/01/20 09:01:30;;;;;;;12.93;2.80;;;;;;;;;;5058647;28;20058;-89
2022/01/20 09:03:55;;;;;;;20.90;2.33;;;;;;;;;;5069527;28;20046;-90
2022/01/20 09:06:21;;;;;;;16.73;2.63;;;;;;;;;;5067832;28;20024;-90
2022/01/20 09:08:47;;;;;;;19.67;2.47;;;;;;;;;;5052105;28;20492;-90
2022/01/20 09:11:19;;;;;;;15.03;1.90;;;;;;;;;;5052625;28;20028;-90
2022/01/20 09:16:28;;;;;;;15.13;2.40;;;;;;;;;;5053928;28;20397;-90
2022/01/20 09:18:54;;;;;;;18.17;2.93;;;;;;;;;;5069157;28;20020;-89
2022/01/20 09:21:22;;;;;;;14.10;1.80;;;;;;;;;;5069403;28;20032;-90
2022/01/20 09:23:47;;;;;;;20.77;2.27;;;;;;;;;;5072419;28;20095;-90
2022/01/20 09:26:13;;;;;;;25.53;2.23;;;;;;;;;;5072341;28;20107;-89
2022/01/20 09:28:38;;;;;;;21.63;2.17;;;;;;;;;;5072503;28;20019;-89
2022/01/20 09:31:03;;;;;;;16.57;2.03;;;;;;;;;;5072156;28;20016;-90
2022/01/20 09:33:29;;;;;;;17.17;2.00;;;;;;;;;;5071616;28;20025;-89
2022/01/20 09:35:55;;;;;;;24.70;2.87;;;;;;;;;;5072109;28;20047;-90
2022/01/20 09:38:21;;;;;;;17.37;2.13;;;;;;;;;;5071892;28;20039;-90
2022/01/20 09:40:46;;;;;;;19.27;2.07;;;;;;;;;;5071755;28;20551;-90
2022/01/20 09:43:14;;;;;;;17.63;3.10;;;;;;;;;;5072181;28;20020;-89
2022/01/20 09:45:39;;;;;;;13.03;2.20;;;;;;;;;;5071870;28;20024;-90
2022/01/20 09:48:06;;;;;;;18.07;2.50;;;;;;;;;;5072155;28;20015;-90
2022/01/20 09:50:31;;;;;;;23.23;2.73;;;;;;;;;;5073519;28;20013;-89
2022/01/20 09:52:59;;;;;;;16.43;2.57;;;;;;;;;;5072426;28;20024;-90
2022/01/20 09:55:24;;;;;;;19.23;2.47;;;;;;;;;;5070875;28;20024;-90
2022/01/20 09:57:50;;;;;;;13.80;2.50;;;;;;;;;;5072226;28;20017;-90
2022/01/20 10:00:16;;;;;;;22.40;2.77;;;;;;;;;;5071829;28;20411;-90
2022/01/20 10:02:55;;;;;;;12.63;1.90;;;;;;;;;;5072103;28;20023;-90
2022/01/20 10:05:32;;;;;;;20.20;2.43;;;;;;;;;;5071975;28;20083;-90
2022/01/20 10:08:16;;;;;;;17.40;2.20;;;;;;;;;;5071714;28;20027;-89
2022/01/20 10:11:03;;;;;;;14.43;2.77;;;;;;;;;;5072766;28;20551;-90
2022/01/20 10:13:38;;;;;;;18.10;2.50;;;;;;;;;;5070047;28;20468;-90
2022/01/20 10:16:11;;;;;;;18.97;2.50;;;;;;;;;;5072074;28;20036;-90
2022/01/20 10:19:00;;;;;;;16.07;2.07;;;;;;;;;;5071601;28;20024;-90
2022/01/20 10:21:30;;;;;;;18.53;2.13;;;;;;;;;;5073944;28;20029;-90
2022/01/20 10:24:03;;;;;;;17.47;2.20;;;;;;;;;;5075971;28;20105;-90
2022/01/20 10:26:28;;;;;;;;;;;;;;;;;;5076152;28;20017;-90
2022/01/20 10:28:54;;;;;;;18.80;2.88;;;;;;;;;;5074568;28;19915;-90
2022/01/20 10:31:30;;;;;;;17.63;2.40;;;;;;;;;;5056742;28;20033;-90
2022/01/20 10:33:55;;;;;;;13.00;2.13;;;;;;;;;;5055706;28;20047;-90
2022/01/20 10:36:22;;;;;;;15.37;2.10;;;;;;;;;;5055517;28;20021;-90
2022/01/20 10:38:57;;;;;;;21.30;2.03;;;;;;;;;;5055450;28;20534;-90
2022/01/20 10:41:26;;;;;;;18.00;2.23;;;;;;;;;;5055696;28;20032;-90
2022/01/20 10:43:59;;;;;;;18.57;2.10;;;;;;;;;;5064988;28;20039;-90
2022/01/20 10:46:24;;;;;;;13.87;1.97;;;;;;;;;;5075368;28;20024;-90
2022/01/20 10:48:59;;;;;;;12.73;1.90;;;;;;;;;;5075202;28;20017;-90
2022/01/20 10:51:25;;;;;;;12.30;1.93;;;;;;;;;;5075194;28;20035;-91
2022/01/20 10:54:11;;;;;;;21.67;2.07;;;;;;;;;;5075170;28;20016;-90
2022/01/20 10:56:53;;;;;;;11.77;1.80;;;;;;;;;;5075195;28;20029;-90
2022/01/20 10:59:19;;;;;;;14.20;1.88;;;;;;;;;;5075298;28;20437;-90
2022/01/20 11:01:56;;;;;;;12.37;1.50;;;;;;;;;;5074500;28;20120;-90
2022/01/20 11:04:21;;;;;;;14.73;1.77;;;;;;;;;;5075027;28;20495;-90
2022/01/20 11:06:48;;;;;;;14.13;1.77;;;;;;;;;;5074846;28;20028;-90
2022/01/20 11:09:18;;;;;;;12.13;1.93;;;;;;;;;;5075133;28;20020;-90
2022/01/20 11:11:46;;;;;;;13.33;1.93;;;;;;;;;;5075017;28;20384;-90
2022/01/20 11:14:11;;;;;;;14.43;1.30;;;;;;;;;;5071444;28;20017;-91
2022/01/20 11:16:38;;;;;;;13.73;1.60;;;;;;;;;;5074861;28;20108;-90
2022/01/20 11:19:13;;;;;;;17.97;2.17;;;;;;;;;;5076024;28;20021;-91
2022/01/20 11:21:42;;;;;;;14.27;1.57;;;;;;;;;;5074758;28;20115;-90
2022/01/20 11:24:15;;;;;;;13.10;1.60;;;;;;;;;;5074836;28;20112;-90
2022/01/20 11:26:56;;;;;;;16.47;2.80;;;;;;;;;;5074752;28;20139;-90
2022/01/20 11:29:23;;;;;;;14.80;2.28;;;;;;;;;;5074582;28;20040;-91
2022/01/20 11:31:48;;;;;;;7.00;1.60;;;;;;;;;;5075281;28;20099;-91
2022/01/20 11:34:17;;;;;;;15.10;2.63;;;;;;;;;;5074565;28;20113;-91
2022/01/20 11:36:43;;;;;;;9.53;1.53;;;;;;;;;;5074731;28;20043;-90
2022/01/20 11:39:08;;;;;;;12.07;1.87;;;;;;;;;;5072955;28;20028;-90
2022/01/20 11:41:40;;;;;;;20.70;2.40;;;;;;;;;;5074487;28;20028;-90
2022/01/20 11:44:09;;;;;;;14.83;2.17;;;;;;;;;;5074586;28;20020;-91
2022/01/20 11:46:38;;;;;;;12.03;3.50;;;;;;;;;;5074082;28;20029;-90
2022/01/20 11:49:08;;;;;;;29.07;11.20;;;;;;;;;;5074412;28;20052;-91
2022/01/20 11:51:43;;;;;;;27.80;5.60;;;;;;;;;;5074340;28;20369;-90
2022/01/20 11:54:08;;;;;;;13.47;2.10;;;;;;;;;;5074290;28;20031;-90
2022/01/20 11:56:41;;;;;;;24.60;2.63;;;;;;;;;;5074427;28;20391;-90
2022/01/20 11:59:09;;;;;;;29.80;5.30;;;;;;;;;;5074102;28;20032;-91
2022/01/20 12:01:48;;;;;;;17.20;1.93;;;;;;;;;;5074916;28;20032;-90
2022/01/20 12:04:14;;;;;;;16.33;1.83;;;;;;;;;;5075284;28;20028;-90
2022/01/20 12:06:43;;;;;;;14.37;2.07;;;;;;;;;;5075030;28;20089;-90
2022/01/20 12:09:08;;;;;;;19.53;2.30;;;;;;;;;;5075148;28;20055;-90
2022/01/20 12:11:38;;;;;;;13.10;1.63;;;;;;;;;;5074031;28;20046;-90
2022/01/20 12:14:04;;;;;;;22.00;2.47;;;;;;;;;;5073843;28;20028;-91
2022/01/20 12:16:29;;;;;;;15.67;1.97;;;;;;;;;;5073778;28;20028;-90
2022/01/20 12:18:56;;;;;;;13.03;1.90;;;;;;;;;;5073883;28;20033;-90
2022/01/20 12:21:21;;;;;;;21.83;2.13;;;;;;;;;;5073706;28;20039;-90
2022/01/20 12:23:47;;;;;;;15.80;1.73;;;;;;;;;;5073872;28;20395;-90
2022/01/20 12:26:13;;;;;;;12.50;1.70;;;;;;;;;;5073372;28;20120;-90
2022/01/20 12:28:38;;;;;;;21.47;2.17;;;;;;;;;;5074590;28;20056;-90
2022/01/20 12:31:05;;;;;;;19.60;2.10;;;;;;;;;;5071887;28;20412;-90
2022/01/20 12:33:32;;;;;;;15.27;1.63;;;;;;;;;;5072557;28;20516;-90
2022/01/20 12:36:03;;;;;;;10.70;1.67;;;;;;;;;;5072128;28;20392;-91
2022/01/20 12:38:36;;;;;;;13.30;2.97;;;;;;;;;;5072282;28;20035;-91
2022/01/20 12:41:22;;;;;;;24.13;7.10;;;;;;;;;;5072421;28;20059;-91
2022/01/20 12:43:48;;;;;;;25.37;5.97;;;;;;;;;;5071517;28;20123;-90
2022/01/20 12:46:15;;;;;;;18.33;2.00;;;;;;;;;;5072138;28;20041;-91
2022/01/20 12:48:56;;;;;;;11.90;1.63;;;;;;;;;;5072150;28;20074;-90
2022/01/20 12:51:44;;;;;;;16.70;1.90;;;;;;;;;;5071676;28;20020;-91
2022/01/20 12:54:13;;;;;;;14.20;1.43;;;;;;;;;;5058375;28;20025;-91
2022/01/20 12:56:58;;;;;;;17.83;1.67;;;;;;;;;;5071820;28;20411;-90
2022/01/20 12:59:25;;;;;;;12.90;1.97;;;;;;;;;;5071211;28;20108;-90
2022/01/20 13:01:50;;;;;;;20.37;2.37;;;;;;;;;;5071149;28;20025;-91
2022/01/20 13:04:16;;;;;;;10.87;2.00;;;;;;;;;;5072572;28;20051;-91
2022/01/20 13:06:51;;;;;;;15.03;1.40;;;;;;;;;;5072879;28;20052;-90
2022/01/20 13:09:18;;;;;;;16.53;1.33;;;;;;;;;;5072443;28;20031;-91
2022/01/20 13:11:53;;;;;;;11.67;1.90;;;;;;;;;;5072639;28;20036;-90
2022/01/20 13:14:19;;;;;;;13.37;1.70;;;;;;;;;;5072435;28;20017;-91
2022/01/20 13:16:51;;;;;;;9.23;1.00;;;;;;;;;;5072534;28;20039;-91
2022/01/20 13:19:16;;;;;;;15.52;2.50;;;;;;;;;;5072412;28;20035;-90
2022/01/20 13:21:46;;;;;;;18.57;1.70;;;;;;;;;;5072953;28;20025;-90
2022/01/20 13:24:17;;;;;;;12.63;1.60;;;;;;;;;;5072771;28;20045;-91
2022/01/20 13:26:46;;;;;;;16.07;1.70;;;;;;;;;;5072704;28;20020;-91
2022/01/20 13:29:12;;;;;;;15.80;3.40;;;;;;;;;;5072499;28;20020;-90
2022/01/20 13:31:37;;;;;;;7.57;1.67;;;;;;;;;;5072081;28;20051;-91
2022/01/20 13:34:20;;;;;;;19.67;2.20;;;;;;;;;;5072505;28;20016;-90
2022/01/20 13:36:48;;;;;;;16.73;1.67;;;;;;;;;;5072627;28;20116;-90
2022/01/20 13:39:13;;;;;;;11.47;1.20;;;;;;;;;;5072345;28;20043;-90
2022/01/20 13:41:41;;;;;;;13.87;1.63;;;;;;;;;;5072487;28;20024;-91
2022/01/20 13:47:07;;;;;;;15.00;1.97;;;;;;;;;;5053462;28;20028;-90
2022/01/20 13:49:33;;;;;;;12.32;1.58;;;;;;;;;;5069220;28;20048;-90
2022/01/20 13:52:00;;;;;;;11.47;1.30;;;;;;;;;;5069302;28;20029;-90
2022/01/20 13:54:44;;;;;;;17.60;2.10;;;;;;;;;;5069169;28;20382;-90
2022/01/20 13:57:10;;;;;;;14.57;1.83;;;;;;;;;;5073405;28;20048;-91
2022/01/20 13:59:45;;;;;;;11.47;2.30;;;;;;;;;;5076032;28;20020;-90
2022/01/20 14:02:11;;;;;;;8.03;1.30;;;;;;;;;;5076582;28;20032;-90
2022/01/20 14:04:36;;;;;;;10.27;1.70;;;;;;;;;;5076334;28;20025;-91
2022/01/20 14:07:01;;;;;;;16.03;1.73;;;;;;;;;;5075928;28;20028;-91
2022/01/20 14:09:26;;;;;;;17.43;1.93;;;;;;;;;;5076332;28;20021;-91
2022/01/20 14:11:51;;;;;;;10.73;1.60;;;;;;;;;;5076304;28;20464;-90
2022/01/20 14:14:17;;;;;;;9.47;1.60;;;;;;;;;;5077121;28;20460;-90
2022/01/20 14:16:43;;;;;;;10.10;1.53;;;;;;;;;;5076036;28;20024;-91
2022/01/20 14:19:10;;;;;;;12.67;1.57;;;;;;;;;;5076187;28;20025;-91
2022/01/20 14:21:35;;;;;;;22.53;1.77;;;;;;;;;;5076036;28;20032;-91
2022/01/20 14:24:01;;;;;;;11.60;1.23;;;;;;;;;;5076079;28;20017;-90
2022/01/20 14:26:29;;;;;;;14.27;1.63;;;;;;;;;;5076013;28;20028;-90
2022/01/20 14:28:55;;;;;;;11.73;1.10;;;;;;;;;;5076023;28;20472;-90
2022/01/20 14:31:20;;;;;;;17.27;1.70;;;;;;;;;;5075141;28;20024;-90
2022/01/20 14:33:45;;;;;;;9.97;1.13;;;;;;;;;;5075999;28;20048;-91
2022/01/20 14:36:10;;;;;;;11.97;1.33;;;;;;;;;;5075994;28;20024;-90
2022/01/20 14:38:35;;;;;;;12.50;1.50;;;;;;;;;;5075708;28;20024;-91
2022/01/20 14:41:01;;;;;;;8.20;0.90;;;;;;;;;;5077026;28;20024;-91
2022/01/20 14:43:26;;;;;;;9.73;1.43;;;;;;;;;;5075646;28;20024;-91
2022/01/20 14:45:51;;;;;;;9.07;1.30;;;;;;;;;;5074796;28;20028;-91
2022/01/20 14:48:17;;;;;;;12.30;1.43;;;;;;;;;;5076635;28;20017;-91
2022/01/20 14:50:43;;;;;;;16.30;1.37;;;;;;;;;;5075530;28;20583;-91
2022/01/20 14:53:08;;;;;;;10.80;1.40;;;;;;;;;;5075535;28;20706;-91
2022/01/20 14:55:33;;;;;;;11.10;1.60;;;;;;;;;;5075208;28;20012;-90
2022/01/20 14:57:58;;;;;;;11.77;1.23;;;;;;;;;;5075304;28;20017;-90
2022/01/20 15:00:24;;;;;;;8.40;1.10;;;;;;;;;;5075220;28;20020;-89
2022/01/20 15:02:49;;;;;;;12.00;1.37;;;;;;;;;;5075410;28;20494;-90
2022/01/20 15:05:18;;;;;;;8.20;1.13;;;;;;;;;;5074682;28;20472;-91
2022/01/20 15:07:44;;;;;;;7.83;1.10;;;;;;;;;;5074385;28;20028;-90
2022/01/20 15:10:11;;;;;;;10.00;1.10;;;;;;;;;;5075163;28;20406;-90
2022/01/20 15:12:37;;;;;;;10.03;1.03;;;;;;;;;;5075276;28;20020;-90
2022/01/20 15:15:03;;;;;;;13.27;1.33;;;;;;;;;;5074945;28;20442;-90
2022/01/20 15:17:28;;;;;;;4.53;0.80;;;;;;;;;;5074971;28;20069;-90
2022/01/20 15:19:53;;;;;;;11.13;2.27;;;;;;;;;;5074161;28;20032;-90
2022/01/20 15:22:18;;;;;;;13.27;2.17;;;;;;;;;;5074944;28;20025;-90
2022/01/20 15:24:44;;;;;;;7.03;0.73;;;;;;;;;;5074780;28;20167;-91
2022/01/20 15:27:09;;;;;;;11.10;1.77;;;;;;;;;;5074513;28;20460;-91
2022/01/20 15:29:34;;;;;;;9.57;1.30;;;;;;;;;;5074724;28;20028;-90
2022/01/20 15:31:59;;;;;;;7.70;1.00;;;;;;;;;;5074711;28;20021;-90
2022/01/20 15:34:25;;;;;;;8.80;1.30;;;;;;;;;;5075378;28;20036;-90
2022/01/20 15:36:51;;;;;;;7.90;1.57;;;;;;;;;;5075683;28;20020;-90
2022/01/20 15:39:17;;;;;;;9.70;2.60;;;;;;;;;;5074749;28;20436;-90
2022/01/20 15:41:43;;;;;;;13.53;1.77;;;;;;;;;;5074533;28;20063;-91
2022/01/20 15:44:08;;;;;;;8.23;1.80;;;;;;;;;;5074634;28;20044;-91
2022/01/20 15:46:35;;;;;;;9.57;1.47;;;;;;;;;;5074029;28;20055;-90
2022/01/20 15:49:01;;;;;;;9.60;1.43;;;;;;;;;;5074525;28;20024;-90
2022/01/20 15:51:26;;;;;;;9.13;1.43;;;;;;;;;;5074407;28;20115;-90